NCAR-RAP Real-Time Weather Data

Output produced by METARs form (10 April 2020  07:20 UTC)
found at http://weather.rap.ucar.edu/surface/
 
KSGF 100652Z 02010KT 10SM CLR 04/M07 A3016 RMK AO2 SLP213 T00391067
KSGF 100552Z 36010KT 10SM CLR 05/M07 A3013 RMK AO2 PK WND 36027/0456 SLP205 T00501067 10128 20050 401560050 51033
KSGF 100452Z 02017G24KT 10SM CLR 07/M06 A3010 RMK AO2 SLP192 T00721061
KSGF 100352Z 01018KT 10SM CLR 09/M06 A3007 RMK AO2 SLP182 T00891056
KSGF 100252Z 33013G18KT 10SM CLR 07/M01 A3003 RMK AO2 SLP171 T00721006 53010
KSGF 100152Z 33007KT 10SM CLR 08/00 A3000 RMK AO2 SLP160 T00780000
KSGF 100052Z 33009KT 10SM CLR 11/M02 A3000 RMK AO2 SLP158 T01061017
KSGF 092352Z 32009KT 10SM CLR 13/M02 A3000 RMK AO2 SLP159 T01281017 10156 20128 55003
KSGF 092252Z 33015KT 10SM BKN110 13/M02 A3000 RMK AO2 SLP157 T01331017
KSGF 092152Z 32014G21KT 10SM OVC120 14/M01 A2999 RMK AO2 SLP156 T01391006
KSGF 092052Z 32013G21KT 10SM OVC110 14/M01 A3001 RMK AO2 SLP161 T01441006 58007
KSGF 091952Z 33012G22KT 10SM BKN100 14/M01 A3003 RMK AO2 SLP166 T01441011
KSGF 091852Z 30011KT 10SM BKN110 16/01 A3005 RMK AO2 SLP170 T01560011
KSGF 091752Z 32017G22KT 10SM CLR 15/M01 A3004 RMK AO2 SLP167 T01501006 10150 20078 58005
KSGF 091652Z 32012G20KT 10SM CLR 14/00 A3005 RMK AO2 SLP172 T01440000
KSGF 091552Z 35007KT 10SM CLR 14/00 A3005 RMK AO2 SLP171 T01390000
KSGF 091452Z 02008KT 10SM CLR 13/01 A3005 RMK AO2 SLP172 T01280006 51012
KSGF 091352Z 05007KT 10SM CLR 11/02 A3004 RMK AO2 SLP167 T01110017
KSGF 091252Z 02005KT 10SM CLR 09/04 A3003 RMK AO2 SLP162 T00890039
KSGF 091152Z 02003KT 10SM CLR 08/03 A3002 RMK AO2 SLP157 T00780033 10139 20072 53008
KSGF 091052Z 36006KT 10SM CLR 08/04 A3002 RMK AO2 SLP159 T00830039
KSGF 090952Z 01007KT 10SM CLR 09/03 A2998 RMK AO2 SLP145 T00940033
KSGF 090852Z 01007KT 10SM CLR 10/04 A2999 RMK AO2 SLP147 T01000039 53014